Time;durP1;ratioP1;P1;durP2;ratioP2;P2;SDS_P1;SDS_P2;PMS_P1;PMS_P2;Temp;Humidity;BMP_temperature;BMP_pressure;BME280_temperature;BME280_humidity;BME280_pressure;Samples;Min_cycle;Max_cycle;Signal;HPM_P1;HPM_P2
2022/03/28 00:01:48;;;;;;;;;;;;;;;29.07;18.06;102035.22;5018210;28;1914;-42
2022/03/28 00:04:13;;;;;;;;;;;;;;;28.47;18.07;102042.41;5022996;28;1045;-41
2022/03/28 00:06:39;;;;;;;;;;;;;;;28.33;18.28;102033.00;5018441;28;841;-41
2022/03/28 00:09:05;;;;;;;;;;;;;;;28.65;18.38;102033.34;5022242;28;774;-40
2022/03/28 00:11:31;;;;;;;;;;;;;;;28.88;18.06;102044.44;5018933;28;908;-41
2022/03/28 00:13:56;;;;;;;;;;;;;;;29.08;17.85;102031.50;5018032;28;893;-40
2022/03/28 00:16:22;;;;;;;;;;;;;;;28.48;17.85;102039.53;5018366;28;826;-40
2022/03/28 00:18:47;;;;;;;;;;;;;;;28.36;18.25;102043.53;5017866;28;908;-41
2022/03/28 00:21:12;;;;;;;;;;;;;;;28.59;18.29;102037.56;5017709;28;1971;-39
2022/03/28 00:23:38;;;;;;;;;;;;;;;28.84;18.06;102032.25;5022138;28;878;-42
2022/03/28 00:26:03;;;;;;;;;;;;;;;29.01;17.91;102040.47;5017702;28;778;-41
2022/03/28 00:28:28;;;;;;;;;;;;;;;28.52;17.83;102045.47;5018029;28;959;-40
2022/03/28 00:30:53;;;;;;;;;;;;;;;28.36;18.26;102043.53;5017851;28;936;-40
2022/03/28 00:33:19;;;;;;;;;;;;;;;28.47;18.58;102050.53;5017399;28;830;-42
2022/03/28 00:35:44;;;;;;;;;;;;;;;28.68;18.31;102049.25;5018555;28;794;-41
2022/03/28 00:38:11;;;;;;;;;;;;;;;28.84;17.92;102043.91;5017447;28;1018;-41
2022/03/28 00:40:37;;;;;;;;;;;;;;;28.33;18.06;102038.41;5017703;28;902;-39
2022/03/28 00:43:03;;;;;;;;;;;;;;;28.28;18.25;102048.88;5017517;28;1914;-40
2022/03/28 00:45:32;;;;;;;;;;;;;;;28.65;18.44;102057.72;5017675;28;865;-40
2022/03/28 00:47:58;;;;;;;;;;;;;;;28.88;18.04;102055.28;5019055;28;813;-41
2022/03/28 00:50:23;;;;;;;;;;;;;;;28.94;17.88;102054.63;5019112;28;1085;-41
2022/03/28 00:52:49;;;;;;;;;;;;;;;29.01;17.86;102054.00;5017561;28;874;-39
2022/03/28 00:55:14;;;;;;;;;;;;;;;29.38;17.38;102058.16;5022594;28;757;-41
2022/03/28 00:57:39;;;;;;;;;;;;;;;29.50;17.45;102057.81;5017568;28;873;-38
2022/03/28 01:00:05;;;;;;;;;;;;;;;29.09;17.54;102062.16;5016210;28;998;-42
2022/03/28 01:02:31;;;;;;;;;;;;;;;28.62;17.61;102069.72;5017205;28;1944;-41
2022/03/28 01:04:57;;;;;;;;;;;;;;;29.06;17.67;102057.06;5021070;28;1077;-40
2022/03/28 01:07:23;;;;;;;;;;;;;;;28.75;17.90;102057.59;5017268;28;873;-42
2022/03/28 01:09:48;;;;;;;;;;;;;;;28.44;17.88;102058.97;5020428;28;859;-38
2022/03/28 01:12:13;;;;;;;;;;;;;;;28.34;18.10;102065.31;5016880;28;817;-40
2022/03/28 01:14:40;;;;;;;;;;;;;;;28.21;18.07;102059.47;5019317;28;1010;-41
2022/03/28 01:19:59;;;;;;;;;;;;;;;28.55;18.30;102064.09;4991908;28;1228;-41
2022/03/28 01:22:25;;;;;;;;;;;;;;;28.70;18.13;102064.34;5016903;28;1898;-40
2022/03/28 01:24:50;;;;;;;;;;;;;;;28.91;18.07;102057.66;5018392;28;936;-40
2022/03/28 01:27:15;;;;;;;;;;;;;;;28.98;17.81;102059.75;5023165;28;917;-39
2022/03/28 01:29:44;;;;;;;;;;;;;;;29.25;17.72;102064.06;5015026;28;844;-42
2022/03/28 01:32:10;;;;;;;;;;;;;;;29.48;17.31;102063.41;5016698;28;757;-40
2022/03/28 01:34:35;;;;;;;;;;;;;;;29.56;17.12;102063.44;5016824;28;766;-40
2022/03/28 01:37:00;;;;;;;;;;;;;;;29.04;17.63;102061.81;5016780;28;766;-41
2022/03/28 01:39:26;;;;;;;;;;;;;;;28.61;18.00;102057.22;5022087;28;1074;-41
2022/03/28 01:41:51;;;;;;;;;;;;;;;29.24;17.60;102053.38;5016719;28;1910;-41
2022/03/28 01:44:16;;;;;;;;;;;;;;;28.62;17.47;102052.63;5016180;28;897;-40
2022/03/28 01:46:45;;;;;;;;;;;;;;;28.42;17.84;102051.00;5016624;28;823;-40
2022/03/28 01:49:11;;;;;;;;;;;;;;;28.38;17.89;102056.91;5016842;28;810;-42
2022/03/28 01:51:36;;;;;;;;;;;;;;;28.27;17.88;102053.44;5017978;28;790;-38
2022/03/28 01:54:02;;;;;;;;;;;;;;;28.17;18.32;102040.00;5034619;28;845;-41
2022/03/28 01:56:27;;;;;;;;;;;;;;;28.08;18.39;102049.91;5016639;28;817;-41
2022/03/28 01:58:53;;;;;;;;;;;;;;;28.04;18.56;102053.94;5023379;28;822;-38
2022/03/28 02:01:18;;;;;;;;;;;;;;;28.10;18.46;102053.31;5035261;28;1955;-40
2022/03/28 02:03:43;;;;;;;;;;;;;;;28.44;18.27;102049.00;5035483;28;998;-40
2022/03/28 02:06:09;;;;;;;;;;;;;;;28.62;18.28;102047.22;5019044;28;911;-39
2022/03/28 02:08:35;;;;;;;;;;;;;;;28.69;17.99;102048.28;5028505;28;869;-41
2022/03/28 02:11:00;;;;;;;;;;;;;;;28.89;17.87;102046.16;5016579;28;857;-43
2022/03/28 02:13:26;;;;;;;;;;;;;;;29.17;17.46;102059.47;5016676;28;761;-40
2022/03/28 02:15:51;;;;;;;;;;;;;;;29.46;17.51;102051.91;5021133;28;810;-40
2022/03/28 02:18:16;;;;;;;;;;;;;;;29.60;17.35;102046.84;5026427;28;785;-39
2022/03/28 02:20:41;;;;;;;;;;;;;;;29.71;16.92;102049.25;5025366;28;931;-40
2022/03/28 02:23:07;;;;;;;;;;;;;;;28.85;17.22;102042.91;5039122;28;1902;-40
2022/03/28 02:25:37;;;;;;;;;;;;;;;28.98;17.71;102048.91;5039026;28;825;-39
2022/03/28 02:28:02;;;;;;;;;;;;;;;28.94;17.61;102045.66;5039172;28;857;-42
2022/03/28 02:30:27;;;;;;;;;;;;;;;28.49;17.61;102051.22;5035530;28;823;-40
2022/03/28 02:32:52;;;;;;;;;;;;;;;28.32;18.23;102050.22;5019790;28;921;-39
2022/03/28 02:35:18;;;;;;;;;;;;;;;28.24;17.82;102042.94;5020349;28;810;-38
2022/03/28 02:37:43;;;;;;;;;;;;;;;28.26;18.01;102050.88;5019864;28;1157;-39
2022/03/28 02:40:09;;;;;;;;;;;;;;;28.12;18.02;102050.44;5025233;28;843;-41
2022/03/28 02:42:34;;;;;;;;;;;;;;;28.11;18.31;102055.00;5021283;28;1965;-40
2022/03/28 02:44:59;;;;;;;;;;;;;;;28.21;18.44;102056.78;5024135;28;932;-42
2022/03/28 02:47:25;;;;;;;;;;;;;;;28.40;18.27;102060.28;5019771;28;726;-41
2022/03/28 02:49:51;;;;;;;;;;;;;;;28.66;18.18;102062.13;5019857;28;947;-40
2022/03/28 02:52:16;;;;;;;;;;;;;;;28.69;18.03;102062.66;5019694;28;963;-40
2022/03/28 02:54:41;;;;;;;;;;;;;;;28.77;17.86;102071.81;5022308;28;810;-42
2022/03/28 02:57:07;;;;;;;;;;;;;;;29.16;17.46;102068.59;5021916;28;900;-40
2022/03/28 02:59:32;;;;;;;;;;;;;;;29.42;17.23;102064.94;5020055;28;790;-40
2022/03/28 03:01:57;;;;;;;;;;;;;;;29.57;16.97;102072.41;5019090;28;1898;-39
2022/03/28 03:04:22;;;;;;;;;;;;;;;29.50;17.10;102068.66;5019598;28;817;-40
2022/03/28 03:06:48;;;;;;;;;;;;;;;28.85;17.55;102066.44;5019501;28;782;-41
2022/03/28 03:09:13;;;;;;;;;;;;;;;28.54;17.85;102067.84;5024482;28;818;-39
2022/03/28 03:11:40;;;;;;;;;;;;;;;29.00;17.93;102069.41;5019321;28;1059;-40
2022/03/28 03:14:05;;;;;;;;;;;;;;;29.51;17.16;102073.09;5019056;28;814;-39
2022/03/28 03:16:31;;;;;;;;;;;;;;;29.72;16.81;102069.91;5024214;28;1211;-42
2022/03/28 03:18:56;;;;;;;;;;;;;;;29.72;16.93;102072.63;5037986;28;770;-41
2022/03/28 03:21:22;;;;;;;;;;;;;;;29.88;16.73;102076.38;5033944;28;1898;-40
2022/03/28 03:23:47;;;;;;;;;;;;;;;28.99;17.32;102066.88;5022175;28;833;-36
2022/03/28 03:26:12;;;;;;;;;;;;;;;28.98;17.79;102084.97;5021345;28;813;-38
2022/03/28 03:28:38;;;;;;;;;;;;;;;29.24;17.41;102081.34;5019244;28;878;-40
2022/03/28 03:31:03;;;;;;;;;;;;;;;29.48;17.31;102082.38;5021541;28;1131;-39
2022/03/28 03:33:28;;;;;;;;;;;;;;;29.48;17.16;102084.28;5023429;28;826;-41
2022/03/28 03:35:54;;;;;;;;;;;;;;;28.14;17.51;102086.31;5022640;28;896;-41
2022/03/28 03:38:19;;;;;;;;;;;;;;;27.82;18.36;102094.00;5018791;28;1098;-40
2022/03/28 03:40:45;;;;;;;;;;;;;;;27.98;16.55;102100.53;5022578;28;968;-41
2022/03/28 03:43:10;;;;;;;;;;;;;;;26.09;14.05;102086.19;5018786;28;1981;-42
2022/03/28 03:45:35;;;;;;;;;;;;;;;25.26;13.86;102086.34;5018515;28;810;-39
2022/03/28 03:48:01;;;;;;;;;;;;;;;24.77;13.88;102086.16;5019979;28;921;-40
2022/03/28 03:50:26;;;;;;;;;;;;;;;24.22;15.13;102090.78;5018572;28;877;-41
2022/03/28 03:52:51;;;;;;;;;;;;;;;24.80;14.11;102084.03;5018421;28;965;-41
2022/03/28 03:55:17;;;;;;;;;;;;;;;24.03;15.55;102099.50;5019958;28;988;-41
2022/03/28 03:57:42;;;;;;;;;;;;;;;26.43;14.09;102109.13;5018756;28;809;-34
2022/03/28 04:00:08;;;;;;;;;;;;;;;27.08;14.26;102108.38;5023355;28;774;-39
2022/03/28 04:02:34;;;;;;;;;;;;;;;27.26;14.79;102104.88;5017682;28;1898;-39
2022/03/28 04:04:59;;;;;;;;;;;;;;;26.20;13.35;102096.81;5018719;28;970;-38
2022/03/28 04:07:24;;;;;;;;;;;;;;;24.46;13.64;102095.03;5018442;28;871;-35
2022/03/28 04:09:50;;;;;;;;;;;;;;;22.89;15.15;102092.53;5018007;28;837;-34
2022/03/28 04:12:15;;;;;;;;;;;;;;;23.00;15.53;102104.09;5019632;28;941;-37
2022/03/28 04:14:40;;;;;;;;;;;;;;;22.61;15.43;102103.56;5018085;28;926;-34
2022/03/28 04:17:06;;;;;;;;;;;;;;;22.80;15.28;102102.16;5017530;28;811;-36
2022/03/28 04:19:31;;;;;;;;;;;;;;;22.84;15.68;102103.59;5017731;28;869;-39
2022/03/28 04:21:56;;;;;;;;;;;;;;;26.00;12.86;102098.66;5017240;28;1903;-40
2022/03/28 04:24:22;;;;;;;;;;;;;;;26.67;12.58;102102.41;5022320;28;802;-38
2022/03/28 04:26:47;;;;;;;;;;;;;;;27.31;12.31;102099.84;5020822;28;718;-39
2022/03/28 04:29:13;;;;;;;;;;;;;;;27.60;12.20;102098.81;5025708;28;1008;-41
2022/03/28 04:31:40;;;;;;;;;;;;;;;27.78;12.29;102102.59;5017535;28;857;-37
2022/03/28 04:34:06;;;;;;;;;;;;;;;27.93;12.21;102106.41;5017825;28;737;-42
2022/03/28 04:36:32;;;;;;;;;;;;;;;27.80;11.53;102104.13;5032106;28;801;-37
2022/03/28 04:38:57;;;;;;;;;;;;;;;25.71;13.40;102096.81;5022644;28;1259;-37
2022/03/28 04:41:22;;;;;;;;;;;;;;;25.21;14.11;102091.28;5017944;28;1898;-39
2022/03/28 04:43:47;;;;;;;;;;;;;;;26.76;12.82;102098.81;5017748;28;802;-40
2022/03/28 04:46:13;;;;;;;;;;;;;;;27.47;12.80;102095.66;5016839;28;904;-40
2022/03/28 04:48:38;;;;;;;;;;;;;;;27.75;12.84;102103.72;5017331;28;869;-40
2022/03/28 04:51:04;;;;;;;;;;;;;;;27.93;13.11;102106.41;5019730;28;833;-39
2022/03/28 04:53:29;;;;;;;;;;;;;;;27.96;13.56;102108.81;5035997;28;901;-39
2022/03/28 04:55:55;;;;;;;;;;;;;;;27.87;14.20;102112.47;5017404;28;804;-40
2022/03/28 04:58:20;;;;;;;;;;;;;;;26.82;15.87;102108.19;5017359;28;940;-40
2022/03/28 05:00:45;;;;;;;;;;;;;;;26.44;16.61;102110.84;5017231;28;802;-41
2022/03/28 05:03:10;;;;;;;;;;;;;;;25.91;16.89;102109.31;5018024;28;1993;-39
2022/03/28 05:05:36;;;;;;;;;;;;;;;25.90;17.06;102107.59;5016887;28;1179;-40
2022/03/28 05:08:01;;;;;;;;;;;;;;;25.81;17.37;102108.44;5027697;28;1032;-35
2022/03/28 05:10:26;;;;;;;;;;;;;;;25.79;17.23;102115.84;5025879;28;794;-35
2022/03/28 05:12:52;;;;;;;;;;;;;;;25.75;18.06;102109.88;5017102;28;789;-37
2022/03/28 05:15:17;;;;;;;;;;;;;;;25.88;19.16;102114.97;5017643;28;949;-36
2022/03/28 05:17:42;;;;;;;;;;;;;;;25.91;18.56;102120.09;5020560;28;901;-43
2022/03/28 05:20:09;;;;;;;;;;;;;;;25.90;18.04;102117.53;5017253;28;743;-38
2022/03/28 05:22:34;;;;;;;;;;;;;;;25.72;18.50;102122.78;5017038;28;1981;-39
2022/03/28 05:24:59;;;;;;;;;;;;;;;25.95;18.03;102119.78;5020564;28;862;-39
2022/03/28 05:27:25;;;;;;;;;;;;;;;25.95;18.38;102123.34;5016635;28;826;-35
2022/03/28 05:29:50;;;;;;;;;;;;;;;26.14;18.48;102125.19;5024859;28;922;-38
2022/03/28 05:32:15;;;;;;;;;;;;;;;26.11;17.79;102121.94;5035479;28;1037;-38
2022/03/28 05:34:41;;;;;;;;;;;;;;;25.80;17.95;102113.00;5036518;28;727;-36
2022/03/28 05:37:09;;;;;;;;;;;;;;;25.66;18.56;102116.94;5035098;28;1248;-38
2022/03/28 05:39:34;;;;;;;;;;;;;;;25.50;19.25;102122.84;5028727;28;862;-39
2022/03/28 05:41:59;;;;;;;;;;;;;;;25.47;19.19;102125.81;5018655;28;1987;-36
2022/03/28 05:44:25;;;;;;;;;;;;;;;25.46;19.14;102117.88;5016576;28;834;-38
2022/03/28 05:46:51;;;;;;;;;;;;;;;25.47;19.33;102116.88;5016416;28;833;-35
2022/03/28 05:49:16;;;;;;;;;;;;;;;25.87;19.52;102115.97;5016791;28;810;-38
2022/03/28 05:51:42;;;;;;;;;;;;;;;25.86;18.87;102114.25;5021347;28;1100;-39
2022/03/28 05:54:07;;;;;;;;;;;;;;;25.90;19.47;102115.69;5030460;28;1317;-40
2022/03/28 05:56:32;;;;;;;;;;;;;;;25.91;19.43;102112.00;5016387;28;913;-36
2022/03/28 05:58:58;;;;;;;;;;;;;;;25.63;19.71;102106.44;5016112;28;818;-36
2022/03/28 06:01:23;;;;;;;;;;;;;;;25.60;19.93;102108.53;5016407;28;1973;-34
2022/03/28 06:03:48;;;;;;;;;;;;;;;25.76;19.61;102102.63;5020291;28;958;-40
2022/03/28 06:06:14;;;;;;;;;;;;;;;25.75;19.90;102109.00;5020144;28;744;-40
2022/03/28 06:08:39;;;;;;;;;;;;;;;25.84;19.84;102110.84;5021301;28;948;-40
2022/03/28 06:11:05;;;;;;;;;;;;;;;26.24;19.70;102109.00;5033991;28;1036;-41
2022/03/28 06:13:31;;;;;;;;;;;;;;;26.48;19.78;102114.94;5035383;28;847;-41
2022/03/28 06:15:56;;;;;;;;;;;;;;;26.22;20.19;102110.13;5034965;28;842;-41
2022/03/28 06:18:22;;;;;;;;;;;;;;;25.83;19.85;102101.06;5035298;28;794;-38
2022/03/28 06:20:48;;;;;;;;;;;;;;;25.72;19.82;102110.16;5020717;28;872;-40
2022/03/28 06:23:13;;;;;;;;;;;;;;;25.76;19.85;102108.00;5016136;28;1965;-39
2022/03/28 06:25:38;;;;;;;;;;;;;;;25.73;20.09;102106.47;5020652;28;799;-38
2022/03/28 06:28:04;;;;;;;;;;;;;;;25.82;19.98;102112.00;5016285;28;830;-36
2022/03/28 06:30:29;;;;;;;;;;;;;;;25.74;20.02;102118.94;5029140;28;774;-38
2022/03/28 06:32:54;;;;;;;;;;;;;;;25.71;20.23;102113.81;5028564;28;789;-39
2022/03/28 06:35:20;;;;;;;;;;;;;;;25.78;20.07;102116.81;5016153;28;930;-39
2022/03/28 06:37:45;;;;;;;;;;;;;;;25.85;20.05;102120.66;5015919;28;1010;-40
2022/03/28 06:40:11;;;;;;;;;;;;;;;25.86;19.97;102118.81;5018309;28;809;-39
2022/03/28 06:42:36;;;;;;;;;;;;;;;25.76;20.29;102111.56;5023865;28;1910;-39
2022/03/28 06:45:02;;;;;;;;;;;;;;;25.77;20.45;102113.28;5025702;28;1227;-36
2022/03/28 06:47:27;;;;;;;;;;;;;;;25.89;20.42;102119.38;5028005;28;1348;-38
2022/03/28 06:49:53;;;;;;;;;;;;;;;26.29;20.03;102125.59;5029913;28;1472;-37
2022/03/28 06:52:18;;;;;;;;;;;;;;;26.09;20.13;102119.34;5033876;28;1204;-39
2022/03/28 06:54:43;;;;;;;;;;;;;;;26.04;20.14;102116.28;5024299;28;1320;-38
2022/03/28 06:57:09;;;;;;;;;;;;;;;26.10;20.36;102114.81;5016042;28;1246;-40
2022/03/28 06:59:34;;;;;;;;;;;;;;;26.17;20.04;102119.50;5018927;28;822;-42
2022/03/28 07:01:59;;;;;;;;;;;;;;;26.14;19.99;102119.78;5019617;28;1894;-43
2022/03/28 07:04:25;;;;;;;;;;;;;;;26.21;20.04;102121.94;5025592;28;1006;-43
2022/03/28 07:06:51;;;;;;;;;;;;;;;26.16;20.00;102123.19;5024690;28;1061;-41
2022/03/28 07:09:16;;;;;;;;;;;;;;;26.32;20.52;102121.78;5032858;28;1243;-41
2022/03/28 07:11:41;;;;;;;;;;;;;;;26.34;20.38;102122.50;5032770;28;1247;-41
2022/03/28 07:14:07;;;;;;;;;;;;;;;26.40;20.12;102123.78;5035626;28;1215;-39
2022/03/28 07:16:33;;;;;;;;;;;;;;;26.40;20.17;102129.16;5038236;28;837;-40
2022/03/28 07:18:58;;;;;;;;;;;;;;;26.50;19.94;102131.84;5038430;28;738;-40
2022/03/28 07:21:25;;;;;;;;;;;;;;;26.37;20.26;102132.16;5037447;28;2315;-37
2022/03/28 07:23:51;;;;;;;;;;;;;;;26.58;20.05;102142.78;5035002;28;834;-39
2022/03/28 07:26:16;;;;;;;;;;;;;;;26.43;19.90;102133.41;5018894;28;813;-40
2022/03/28 07:28:41;;;;;;;;;;;;;;;26.64;19.96;102141.34;5031507;28;861;-38
2022/03/28 07:31:08;;;;;;;;;;;;;;;26.57;19.67;102132.97;5018569;28;865;-40
2022/03/28 07:33:40;;;;;;;;;;;;;;;26.50;19.83;102132.72;5019366;28;846;-41
2022/03/28 07:36:05;;;;;;;;;;;;;;;26.48;19.74;102134.69;5037659;28;829;-40
2022/03/28 07:38:31;;;;;;;;;;;;;;;26.57;20.03;102138.38;5037441;28;1498;-39
2022/03/28 07:40:56;;;;;;;;;;;;;;;26.62;19.68;102132.53;5019636;28;849;-41
2022/03/28 07:43:21;;;;;;;;;;;;;;;26.72;19.67;102129.81;5018458;28;1975;-40
2022/03/28 07:45:48;;;;;;;;;;;;;;;26.67;19.64;102124.84;5018996;28;759;-40
2022/03/28 07:48:14;;;;;;;;;;;;;;;26.77;19.23;102132.91;5020151;28;802;-38
2022/03/28 07:50:39;;;;;;;;;;;;;;;26.68;19.67;102129.25;5024154;28;819;-38
2022/03/28 07:53:05;;;;;;;;;;;;;;;26.92;19.15;102132.44;5037403;28;853;-39
2022/03/28 07:55:30;;;;;;;;;;;;;;;27.02;19.40;102136.84;5020838;28;873;-38
2022/03/28 07:57:56;;;;;;;;;;;;;;;26.97;19.18;102132.84;5018056;28;829;-39
2022/03/28 08:00:21;;;;;;;;;;;;;;;27.06;19.30;102131.16;5018107;28;851;-42
2022/03/28 08:02:46;;;;;;;;;;;;;;;26.88;19.46;102131.88;5018824;28;1906;-39
2022/03/28 08:05:12;;;;;;;;;;;;;;;27.06;19.45;102123.88;5024354;28;1057;-40
2022/03/28 08:07:38;;;;;;;;;;;;;;;27.12;19.20;102134.09;5018557;28;778;-40
2022/03/28 08:10:05;;;;;;;;;;;;;;;27.00;19.61;102121.75;5023732;28;899;-41
2022/03/28 08:12:30;;;;;;;;;;;;;;;27.13;20.45;102126.84;5016719;28;782;-40
2022/03/28 08:14:56;;;;;;;;;;;;;;;27.22;20.22;102117.84;5021742;28;827;-39
2022/03/28 08:17:21;;;;;;;;;;;;;;;27.22;20.44;102119.69;5025621;28;743;-40
2022/03/28 08:19:47;;;;;;;;;;;;;;;27.10;19.68;102116.31;5023827;28;826;-38
2022/03/28 08:22:12;;;;;;;;;;;;;;;26.90;19.96;102116.38;5018600;28;1906;-37
2022/03/28 08:24:38;;;;;;;;;;;;;;;26.99;19.94;102117.34;5021845;28;908;-33
2022/03/28 08:27:03;;;;;;;;;;;;;;;26.94;19.72;102107.00;5030346;28;833;-34
2022/03/28 08:29:28;;;;;;;;;;;;;;;26.75;19.88;102106.06;5017997;28;809;-36
2022/03/28 08:31:53;;;;;;;;;;;;;;;26.81;19.88;102098.38;5017774;28;857;-35
2022/03/28 08:34:19;;;;;;;;;;;;;;;27.16;19.57;102102.22;5020288;28;1077;-37
2022/03/28 08:36:44;;;;;;;;;;;;;;;27.08;18.82;102100.28;5036069;28;1063;-36
2022/03/28 08:39:09;;;;;;;;;;;;;;;26.97;18.36;102095.03;5031710;28;1656;-37
2022/03/28 08:41:35;;;;;;;;;;;;;;;26.94;19.49;102085.41;5019411;28;1902;-37
2022/03/28 08:44:00;;;;;;;;;;;;;;;26.95;19.71;102087.09;5016415;28;802;-39
2022/03/28 08:46:27;;;;;;;;;;;;;;;27.14;19.22;102080.75;5017573;28;735;-38
2022/03/28 08:48:52;;;;;;;;;;;;;;;27.21;20.11;102077.47;5017667;28;734;-32
2022/03/28 08:51:19;;;;;;;;;;;;;;;27.16;19.51;102077.06;5017313;28;801;-33
2022/03/28 08:53:45;;;;;;;;;;;;;;;27.25;20.18;102068.91;5018765;28;904;-37
2022/03/28 08:56:10;;;;;;;;;;;;;;;27.10;19.67;102065.00;5017445;28;837;-37
2022/03/28 08:58:35;;;;;;;;;;;;;;;27.09;19.47;102057.94;5016943;28;809;-37
2022/03/28 09:01:01;;;;;;;;;;;;;;;27.31;19.23;102059.34;5017372;28;921;-38
2022/03/28 09:03:36;;;;;;;;;;;;;;;27.19;19.30;102061.44;5017878;28;1902;-32
2022/03/28 09:06:01;;;;;;;;;;;;;;;27.37;19.04;102060.59;5024854;28;948;-38
2022/03/28 09:08:26;;;;;;;;;;;;;;;27.10;19.15;102057.78;5016501;28;917;-38
2022/03/28 09:10:52;;;;;;;;;;;;;;;27.43;19.07;102051.00;5022064;28;782;-36
2022/03/28 09:13:18;;;;;;;;;;;;;;;27.53;18.88;102057.19;5016851;28;907;-37
2022/03/28 09:15:48;;;;;;;;;;;;;;;27.47;18.28;102052.41;5017367;28;782;-37
2022/03/28 09:18:22;;;;;;;;;;;;;;;27.32;18.69;102047.53;5017449;28;830;-38
2022/03/28 09:20:49;;;;;;;;;;;;;;;27.19;18.96;102039.81;5016727;28;870;-35
2022/03/28 09:23:30;;;;;;;;;;;;;;;27.59;18.00;102048.47;5016822;28;1991;-36
2022/03/28 09:25:55;;;;;;;;;;;;;;;27.51;18.54;102035.72;5016810;28;786;-36
2022/03/28 09:28:40;;;;;;;;;;;;;;;27.54;18.21;102036.44;5016886;28;750;-38
2022/03/28 09:31:17;;;;;;;;;;;;;;;27.30;17.54;102032.47;5020213;28;813;-40
2022/03/28 09:33:52;;;;;;;;;;;;;;;26.81;16.86;102029.03;5029276;28;763;-40
2022/03/28 09:36:18;;;;;;;;;;;;;;;26.99;24.59;102023.66;5035716;28;809;-36
2022/03/28 09:38:55;;;;;;;;;;;;;;;26.91;25.30;102028.97;5033585;28;1041;-36
2022/03/28 09:41:23;;;;;;;;;;;;;;;26.87;25.43;102023.06;5016475;28;831;-40
2022/03/28 09:43:52;;;;;;;;;;;;;;;26.80;23.92;102021.94;5016826;28;1981;-37
2022/03/28 09:46:24;;;;;;;;;;;;;;;26.60;22.69;102018.47;5016927;28;987;-34
2022/03/28 09:48:49;;;;;;;;;;;;;;;26.58;20.42;102012.38;5016418;28;778;-37
2022/03/28 09:51:16;;;;;;;;;;;;;;;26.72;19.71;101998.41;5016699;28;786;-37
2022/03/28 09:53:41;;;;;;;;;;;;;;;26.50;18.41;101991.53;5016831;28;1035;-38
2022/03/28 09:56:07;;;;;;;;;;;;;;;26.47;18.29;101995.41;5019839;28;754;-37
2022/03/28 09:58:49;;;;;;;;;;;;;;;26.40;17.58;101988.88;5020362;28;1199;-39
2022/03/28 10:01:17;;;;;;;;;;;;;;;26.42;17.07;101992.28;5016743;28;798;-37
2022/03/28 10:03:47;;;;;;;;;;;;;;;26.43;17.11;101987.72;5022905;28;1949;-38
2022/03/28 10:06:12;;;;;;;;;;;;;;;26.44;16.97;101987.59;5025028;28;1383;-34
2022/03/28 10:08:38;;;;;;;;;;;;;;;26.43;16.25;101982.31;5016425;28;775;-36
2022/03/28 10:11:03;;;;;;;;;;;;;;;26.37;16.10;101979.25;5016556;28;794;-39
2022/03/28 10:13:30;;;;;;;;;;;;;;;26.39;16.13;101974.53;5016390;28;838;-35
2022/03/28 10:15:56;;;;;;;;;;;;;;;26.51;15.96;101971.63;5016203;28;871;-36
2022/03/28 10:18:21;;;;;;;;;;;;;;;26.53;16.06;101970.50;5027659;28;1104;-38
2022/03/28 10:20:47;;;;;;;;;;;;;;;26.80;15.95;101972.50;5018095;28;1510;-37
2022/03/28 10:23:13;;;;;;;;;;;;;;;26.51;16.31;101977.03;5019191;28;1902;-39
2022/03/28 10:25:38;;;;;;;;;;;;;;;26.88;16.35;101959.09;5018289;28;1889;-35
2022/03/28 10:28:03;;;;;;;;;;;;;;;27.15;17.33;101960.06;5018007;28;1114;-38
2022/03/28 10:30:30;;;;;;;;;;;;;;;27.19;17.29;101953.38;5028281;28;1263;-36
2022/03/28 10:33:11;;;;;;;;;;;;;;;27.39;16.94;101950.50;5020865;28;1196;-38
2022/03/28 10:35:37;;;;;;;;;;;;;;;27.43;16.88;101943.78;5018204;28;854;-36
2022/03/28 10:38:15;;;;;;;;;;;;;;;27.71;16.65;101937.44;5019949;28;1172;-42
2022/03/28 10:40:52;;;;;;;;;;;;;;;27.73;16.79;101941.66;5025020;28;906;-38
2022/03/28 10:43:17;;;;;;;;;;;;;;;27.89;17.00;101936.53;5038981;28;1906;-40
2022/03/28 10:45:42;;;;;;;;;;;;;;;27.99;16.89;101935.41;5038413;28;859;-40
2022/03/28 10:48:08;;;;;;;;;;;;;;;28.06;16.94;101919.38;5031597;28;826;-38
2022/03/28 10:50:53;;;;;;;;;;;;;;;28.11;17.16;101911.63;5038342;28;873;-40
2022/03/28 10:53:19;;;;;;;;;;;;;;;28.14;17.00;101904.22;5039094;28;786;-41
2022/03/28 10:55:48;;;;;;;;;;;;;;;28.14;17.22;101905.06;5025905;28;843;-38
2022/03/28 10:58:24;;;;;;;;;;;;;;;28.17;17.39;101901.19;5019924;28;848;-42
2022/03/28 11:01:07;;;;;;;;;;;;;;;28.21;17.06;101905.25;5029827;28;1087;-39
2022/03/28 11:03:41;;;;;;;;;;;;;;;28.34;17.29;101891.31;5037012;28;1902;-38
2022/03/28 11:06:06;;;;;;;;;;;;;;;28.20;17.44;101882.75;5036019;28;1282;-38
2022/03/28 11:08:36;;;;;;;;;;;;;;;28.26;17.64;101881.25;5038127;28;931;-39
2022/03/28 11:11:14;;;;;;;;;;;;;;;28.24;17.82;101872.47;5031993;28;840;-41
2022/03/28 11:13:39;;;;;;;;;;;;;;;28.36;17.50;101873.88;5026624;28;814;-40
2022/03/28 11:16:04;;;;;;;;;;;;;;;28.29;17.88;101870.13;5019408;28;766;-36
2022/03/28 11:18:30;;;;;;;;;;;;;;;28.20;17.77;101869.25;5018997;28;1012;-40
2022/03/28 11:20:55;;;;;;;;;;;;;;;28.32;17.75;101869.78;5019058;28;937;-38
2022/03/28 11:23:20;;;;;;;;;;;;;;;28.44;17.66;101861.41;5030687;28;1963;-40
2022/03/28 11:25:51;;;;;;;;;;;;;;;28.38;17.65;101853.94;5022234;28;916;-41
2022/03/28 11:28:22;;;;;;;;;;;;;;;28.54;17.34;101850.44;5018876;28;1543;-37
2022/03/28 11:30:59;;;;;;;;;;;;;;;28.57;17.54;101842.81;5018538;28;873;-39
2022/03/28 11:33:28;;;;;;;;;;;;;;;28.35;17.72;101836.16;5021497;28;1509;-38
2022/03/28 11:36:02;;;;;;;;;;;;;;;28.70;17.06;101836.91;5027855;28;1132;-39
2022/03/28 11:38:29;;;;;;;;;;;;;;;28.60;17.21;101838.91;5022313;28;1082;-39
2022/03/28 11:40:54;;;;;;;;;;;;;;;28.83;16.98;101841.81;5036992;28;750;-39
2022/03/28 11:43:33;;;;;;;;;;;;;;;28.63;17.32;101833.16;5037610;28;1913;-40
2022/03/28 11:45:58;;;;;;;;;;;;;;;28.80;16.93;101831.34;5037125;28;1501;-38
2022/03/28 11:48:24;;;;;;;;;;;;;;;28.60;17.35;101828.94;5025073;28;742;-39
2022/03/28 11:50:49;;;;;;;;;;;;;;;28.63;17.27;101824.22;5023881;28;1219;-38
2022/03/28 11:53:15;;;;;;;;;;;;;;;28.61;17.25;101818.97;5035629;28;1186;-40
2022/03/28 11:55:45;;;;;;;;;;;;;;;28.99;17.05;101818.50;5036725;28;1283;-39
2022/03/28 11:58:19;;;;;;;;;;;;;;;28.82;17.23;101814.91;5037270;28;774;-40
2022/03/28 12:00:48;;;;;;;;;;;;;;;28.52;17.49;101823.53;5037390;28;865;-34
2022/03/28 12:03:14;;;;;;;;;;;;;;;26.47;14.95;101811.06;5035124;28;1898;-42
2022/03/28 12:05:42;;;;;;;;;;;;;;;26.40;15.16;101803.59;5018057;28;1084;-37
2022/03/28 12:08:13;;;;;;;;;;;;;;;26.68;14.82;101785.59;5029153;28;1201;-37
2022/03/28 12:10:39;;;;;;;;;;;;;;;26.42;15.28;101795.34;5033766;28;1258;-34
2022/03/28 12:13:05;;;;;;;;;;;;;;;26.01;14.05;101790.28;5032862;28;1192;-35
2022/03/28 12:15:34;;;;;;;;;;;;;;;25.60;13.85;101786.06;5030200;28;1136;-35
2022/03/28 12:18:00;;;;;;;;;;;;;;;25.76;13.74;101771.97;5035511;28;1088;-39
2022/03/28 12:20:27;;;;;;;;;;;;;;;25.28;13.50;101771.97;5034249;28;1159;-36
2022/03/28 12:22:52;;;;;;;;;;;;;;;25.20;13.23;101769.16;5031390;28;1906;-36
2022/03/28 12:25:30;;;;;;;;;;;;;;;25.07;13.22;101767.59;5031428;28;1085;-33
2022/03/28 12:27:59;;;;;;;;;;;;;;;25.19;13.68;101743.22;5029995;28;1216;-35
2022/03/28 12:30:36;;;;;;;;;;;;;;;25.42;13.84;101754.47;5033460;28;1286;-40
2022/03/28 12:33:11;;;;;;;;;;;;;;;25.25;13.50;101733.69;5032416;28;1188;-38
2022/03/28 12:35:46;;;;;;;;;;;;;;;25.33;14.18;101732.97;5027560;28;1205;-39
2022/03/28 12:38:13;;;;;;;;;;;;;;;25.20;14.21;101736.84;5034367;28;1186;-36
2022/03/28 12:40:38;;;;;;;;;;;;;;;25.03;14.24;101730.34;5019409;28;831;-35
2022/03/28 12:43:04;;;;;;;;;;;;;;;25.02;14.51;101721.44;5017226;28;1977;-37
2022/03/28 12:45:30;;;;;;;;;;;;;;;25.47;14.64;101724.44;5026822;28;1065;-33
2022/03/28 12:47:56;;;;;;;;;;;;;;;26.34;14.62;101730.50;5036150;28;915;-32
2022/03/28 12:50:24;;;;;;;;;;;;;;;26.72;15.57;101725.78;5036544;28;1015;-36
2022/03/28 12:52:49;;;;;;;;;;;;;;;26.62;16.30;101727.72;5035906;28;1159;-38